sensor_id;sensor_type;location;lat;lon;timestamp;pressure;altitude;pressure_sealevel;temperature;humidity
18436;BME280;9346;52.006;4.720;2023-04-20T00:00:10;102289.94;;;9.28;84.35
18436;BME280;9346;52.006;4.720;2023-04-20T00:02:39;102283.59;;;9.28;85.13
18436;BME280;9346;52.006;4.720;2023-04-20T00:05:07;102287.41;;;9.27;84.48
18436;BME280;9346;52.006;4.720;2023-04-20T00:07:35;102284.88;;;9.25;85.02
18436;BME280;9346;52.006;4.720;2023-04-20T00:10:05;102287.88;;;9.24;85.73
18436;BME280;9346;52.006;4.720;2023-04-20T00:12:32;102283.69;;;9.21;85.34
18436;BME280;9346;52.006;4.720;2023-04-20T00:14:59;102283.91;;;9.20;85.91
18436;BME280;9346;52.006;4.720;2023-04-20T00:17:26;102276.13;;;9.17;85.80
18436;BME280;9346;52.006;4.720;2023-04-20T00:19:53;102276.13;;;9.17;84.96
18436;BME280;9346;52.006;4.720;2023-04-20T00:22:20;102270.84;;;9.15;83.67
18436;BME280;9346;52.006;4.720;2023-04-20T00:24:47;102281.47;;;9.11;84.46
18436;BME280;9346;52.006;4.720;2023-04-20T00:27:16;102274.06;;;9.12;84.45
18436;BME280;9346;52.006;4.720;2023-04-20T00:29:43;102275.13;;;9.11;86.20
18436;BME280;9346;52.006;4.720;2023-04-20T00:32:12;102280.03;;;9.09;87.15
18436;BME280;9346;52.006;4.720;2023-04-20T00:34:39;102271.41;;;9.05;89.21
18436;BME280;9346;52.006;4.720;2023-04-20T00:37:06;102265.91;;;9.05;89.82
18436;BME280;9346;52.006;4.720;2023-04-20T00:39:33;102257.91;;;9.04;89.58
18436;BME280;9346;52.006;4.720;2023-04-20T00:42:03;102258.34;;;9.01;89.91
18436;BME280;9346;52.006;4.720;2023-04-20T00:44:33;102258.13;;;9.02;90.32
18436;BME280;9346;52.006;4.720;2023-04-20T00:47:00;102252.41;;;9.04;89.72
18436;BME280;9346;52.006;4.720;2023-04-20T00:49:29;102255.38;;;9.02;90.47
18436;BME280;9346;52.006;4.720;2023-04-20T00:51:59;102252.63;;;9.02;91.22
18436;BME280;9346;52.006;4.720;2023-04-20T00:54:27;102247.59;;;8.99;91.28
18436;BME280;9346;52.006;4.720;2023-04-20T00:56:54;102244.53;;;8.89;92.48
18436;BME280;9346;52.006;4.720;2023-04-20T00:59:22;102239.34;;;8.81;94.58
18436;BME280;9346;52.006;4.720;2023-04-20T01:01:51;102234.75;;;8.75;96.71
18436;BME280;9346;52.006;4.720;2023-04-20T01:04:17;102226.59;;;8.69;98.64
18436;BME280;9346;52.006;4.720;2023-04-20T01:06:44;102224.75;;;8.63;99.53
18436;BME280;9346;52.006;4.720;2023-04-20T01:09:11;102219.19;;;8.51;99.15
18436;BME280;9346;52.006;4.720;2023-04-20T01:11:39;102213.06;;;8.49;98.75
18436;BME280;9346;52.006;4.720;2023-04-20T01:14:06;102208.66;;;8.48;98.60
18436;BME280;9346;52.006;4.720;2023-04-20T01:16:33;102202.53;;;8.46;98.32
18436;BME280;9346;52.006;4.720;2023-04-20T01:19:02;102199.66;;;8.41;99.28
18436;BME280;9346;52.006;4.720;2023-04-20T01:21:29;102203.44;;;8.40;100.00
18436;BME280;9346;52.006;4.720;2023-04-20T01:23:58;102187.41;;;8.37;100.00
18436;BME280;9346;52.006;4.720;2023-04-20T01:26:26;102187.19;;;8.39;100.00
18436;BME280;9346;52.006;4.720;2023-04-20T01:28:52;102180.66;;;8.40;100.00
18436;BME280;9346;52.006;4.720;2023-04-20T01:31:19;102170.50;;;8.40;100.00
18436;BME280;9346;52.006;4.720;2023-04-20T01:33:46;102164.88;;;8.35;100.00
18436;BME280;9346;52.006;4.720;2023-04-20T01:36:13;102165.94;;;8.34;100.00
18436;BME280;9346;52.006;4.720;2023-04-20T01:38:40;102161.66;;;8.38;100.00
18436;BME280;9346;52.006;4.720;2023-04-20T01:41:09;102161.44;;;8.40;100.00
18436;BME280;9346;52.006;4.720;2023-04-20T01:43:37;102151.06;;;8.42;100.00
18436;BME280;9346;52.006;4.720;2023-04-20T01:46:05;102150.00;;;8.43;100.00
18436;BME280;9346;52.006;4.720;2023-04-20T01:48:33;102143.66;;;8.42;100.00
18436;BME280;9346;52.006;4.720;2023-04-20T01:51:00;102145.09;;;8.45;100.00
18436;BME280;9346;52.006;4.720;2023-04-20T01:53:27;102141.31;;;8.46;100.00
18436;BME280;9346;52.006;4.720;2023-04-20T01:55:54;102144.66;;;8.48;100.00
18436;BME280;9346;52.006;4.720;2023-04-20T01:58:23;102146.09;;;8.50;100.00
18436;BME280;9346;52.006;4.720;2023-04-20T02:00:49;102146.72;;;8.52;100.00
18436;BME280;9346;52.006;4.720;2023-04-20T02:03:16;102145.03;;;8.51;100.00
18436;BME280;9346;52.006;4.720;2023-04-20T02:05:43;102134.88;;;8.52;100.00
18436;BME280;9346;52.006;4.720;2023-04-20T02:08:10;102122.63;;;8.54;100.00
18436;BME280;9346;52.006;4.720;2023-04-20T02:10:37;102122.75;;;8.59;100.00
18436;BME280;9346;52.006;4.720;2023-04-20T02:13:04;102125.50;;;8.59;100.00
18436;BME280;9346;52.006;4.720;2023-04-20T02:15:33;102117.03;;;8.61;100.00
18436;BME280;9346;52.006;4.720;2023-04-20T02:18:03;102111.53;;;8.61;100.00
18436;BME280;9346;52.006;4.720;2023-04-20T02:20:31;102109.00;;;8.59;100.00
18436;BME280;9346;52.006;4.720;2023-04-20T02:22:58;102110.72;;;8.60;100.00
18436;BME280;9346;52.006;4.720;2023-04-20T02:25:26;102097.44;;;8.57;100.00
18436;BME280;9346;52.006;4.720;2023-04-20T02:27:53;102100.78;;;8.59;100.00
18436;BME280;9346;52.006;4.720;2023-04-20T02:30:20;102093.63;;;8.58;100.00
18436;BME280;9346;52.006;4.720;2023-04-20T02:32:48;102090.47;;;8.55;100.00
18436;BME280;9346;52.006;4.720;2023-04-20T02:35:15;102090.56;;;8.48;100.00
18436;BME280;9346;52.006;4.720;2023-04-20T02:37:42;102092.34;;;8.43;100.00
18436;BME280;9346;52.006;4.720;2023-04-20T02:40:10;102087.53;;;8.38;100.00
18436;BME280;9346;52.006;4.720;2023-04-20T02:42:38;102091.09;;;8.39;100.00
18436;BME280;9346;52.006;4.720;2023-04-20T02:45:05;102084.16;;;8.36;100.00
18436;BME280;9346;52.006;4.720;2023-04-20T02:47:32;102075.34;;;8.34;100.00
18436;BME280;9346;52.006;4.720;2023-04-20T02:50:01;102078.16;;;8.28;100.00
18436;BME280;9346;52.006;4.720;2023-04-20T02:52:28;102076.72;;;8.25;100.00
18436;BME280;9346;52.006;4.720;2023-04-20T02:54:55;102078.84;;;8.23;100.00
18436;BME280;9346;52.006;4.720;2023-04-20T02:57:22;102072.28;;;8.24;100.00
18436;BME280;9346;52.006;4.720;2023-04-20T02:59:50;102077.75;;;8.24;100.00
18436;BME280;9346;52.006;4.720;2023-04-20T03:02:17;102068.47;;;8.25;100.00
18436;BME280;9346;52.006;4.720;2023-04-20T03:04:44;102063.56;;;8.27;100.00
18436;BME280;9346;52.006;4.720;2023-04-20T03:07:13;102059.56;;;8.30;100.00
18436;BME280;9346;52.006;4.720;2023-04-20T03:09:40;102058.25;;;8.32;100.00
18436;BME280;9346;52.006;4.720;2023-04-20T03:12:07;102056.59;;;8.31;100.00
18436;BME280;9346;52.006;4.720;2023-04-20T03:14:35;102053.00;;;8.31;100.00
18436;BME280;9346;52.006;4.720;2023-04-20T03:17:02;102052.38;;;8.29;100.00
18436;BME280;9346;52.006;4.720;2023-04-20T03:19:29;102058.94;;;8.28;100.00
18436;BME280;9346;52.006;4.720;2023-04-20T03:21:55;102051.78;;;8.27;100.00
18436;BME280;9346;52.006;4.720;2023-04-20T03:24:24;102050.09;;;8.26;100.00
18436;BME280;9346;52.006;4.720;2023-04-20T03:26:51;102047.56;;;8.24;100.00
18436;BME280;9346;52.006;4.720;2023-04-20T03:29:18;102038.50;;;8.24;100.00
18436;BME280;9346;52.006;4.720;2023-04-20T03:31:45;102041.25;;;8.24;100.00
18436;BME280;9346;52.006;4.720;2023-04-20T03:34:12;102035.53;;;8.25;100.00
18436;BME280;9346;52.006;4.720;2023-04-20T03:36:39;102037.22;;;8.26;100.00
18436;BME280;9346;52.006;4.720;2023-04-20T03:39:06;102029.81;;;8.27;100.00
18436;BME280;9346;52.006;4.720;2023-04-20T03:41:35;102031.25;;;8.29;100.00
18436;BME280;9346;52.006;4.720;2023-04-20T03:44:02;102024.47;;;8.32;100.00
18436;BME280;9346;52.006;4.720;2023-04-20T03:46:30;102020.91;;;8.31;100.00
18436;BME280;9346;52.006;4.720;2023-04-20T03:48:57;102012.66;;;8.31;100.00
18436;BME280;9346;52.006;4.720;2023-04-20T03:51:24;102018.16;;;8.31;100.00
18436;BME280;9346;52.006;4.720;2023-04-20T03:53:51;102009.69;;;8.33;100.00
18436;BME280;9346;52.006;4.720;2023-04-20T03:56:19;102005.00;;;8.33;100.00
18436;BME280;9346;52.006;4.720;2023-04-20T03:58:47;102008.38;;;8.35;100.00
18436;BME280;9346;52.006;4.720;2023-04-20T04:01:15;102002.66;;;8.37;100.00
18436;BME280;9346;52.006;4.720;2023-04-20T04:03:42;102010.03;;;8.36;100.00
18436;BME280;9346;52.006;4.720;2023-04-20T04:06:09;102007.28;;;8.36;100.00
18436;BME280;9346;52.006;4.720;2023-04-20T04:08:36;102009.59;;;8.39;100.00
18436;BME280;9346;52.006;4.720;2023-04-20T04:11:03;102005.53;;;8.42;100.00
18436;BME280;9346;52.006;4.720;2023-04-20T04:13:30;102008.88;;;8.44;100.00
18436;BME280;9346;52.006;4.720;2023-04-20T04:15:59;101996.59;;;8.46;100.00
18436;BME280;9346;52.006;4.720;2023-04-20T04:18:26;101992.56;;;8.49;100.00
18436;BME280;9346;52.006;4.720;2023-04-20T04:20:56;102000.06;;;8.53;100.00
18436;BME280;9346;52.006;4.720;2023-04-20T04:23:23;101995.22;;;8.55;100.00
18436;BME280;9346;52.006;4.720;2023-04-20T04:25:53;101985.06;;;8.56;100.00
18436;BME280;9346;52.006;4.720;2023-04-20T04:28:21;101983.75;;;8.58;100.00
18436;BME280;9346;52.006;4.720;2023-04-20T04:30:48;101980.53;;;8.61;100.00
18436;BME280;9346;52.006;4.720;2023-04-20T04:33:17;101972.53;;;8.60;100.00
18436;BME280;9346;52.006;4.720;2023-04-20T04:35:44;101975.03;;;8.61;100.00
18436;BME280;9346;52.006;4.720;2023-04-20T04:38:13;101961.09;;;8.63;100.00
18436;BME280;9346;52.006;4.720;2023-04-20T04:40:40;101958.09;;;8.64;100.00
18436;BME280;9346;52.006;4.720;2023-04-20T04:43:10;101953.81;;;8.68;100.00
18436;BME280;9346;52.006;4.720;2023-04-20T04:45:37;101951.28;;;8.67;100.00
18436;BME280;9346;52.006;4.720;2023-04-20T04:48:20;101953.47;;;8.65;100.00
18436;BME280;9346;52.006;4.720;2023-04-20T04:50:47;101946.88;;;8.66;100.00
18436;BME280;9346;52.006;4.720;2023-04-20T04:53:14;101945.56;;;8.68;100.00
18436;BME280;9346;52.006;4.720;2023-04-20T04:55:41;101947.84;;;8.71;100.00
18436;BME280;9346;52.006;4.720;2023-04-20T04:58:08;101939.00;;;8.69;100.00
18436;BME280;9346;52.006;4.720;2023-04-20T05:00:35;101944.63;;;8.74;100.00
18436;BME280;9346;52.006;4.720;2023-04-20T05:03:02;101944.00;;;8.72;100.00
18436;BME280;9346;52.006;4.720;2023-04-20T05:05:30;101943.78;;;8.74;100.00
18436;BME280;9346;52.006;4.720;2023-04-20T05:07:57;101940.22;;;8.73;100.00
18436;BME280;9346;52.006;4.720;2023-04-20T05:10:24;101933.41;;;8.76;100.00
18436;BME280;9346;52.006;4.720;2023-04-20T05:12:51;101928.16;;;8.74;100.00
18436;BME280;9346;52.006;4.720;2023-04-20T05:15:18;101923.84;;;8.78;100.00
18436;BME280;9346;52.006;4.720;2023-04-20T05:17:45;101914.28;;;8.81;100.00
18436;BME280;9346;52.006;4.720;2023-04-20T05:20:13;101916.81;;;8.82;100.00
18436;BME280;9346;52.006;4.720;2023-04-20T05:22:42;101917.66;;;8.83;100.00
18436;BME280;9346;52.006;4.720;2023-04-20T05:25:09;101912.75;;;8.85;100.00
18436;BME280;9346;52.006;4.720;2023-04-20T05:27:36;101904.53;;;8.85;100.00
18436;BME280;9346;52.006;4.720;2023-04-20T05:30:04;101895.19;;;8.86;100.00
18436;BME280;9346;52.006;4.720;2023-04-20T05:32:32;101904.38;;;8.91;100.00
18436;BME280;9346;52.006;4.720;2023-04-20T05:34:59;101907.63;;;9.00;100.00
18436;BME280;9346;52.006;4.720;2023-04-20T05:37:26;101905.38;;;9.08;100.00
18436;BME280;9346;52.006;4.720;2023-04-20T05:39:57;101907.75;;;9.17;100.00
18436;BME280;9346;52.006;4.720;2023-04-20T05:42:25;101905.47;;;9.25;100.00
18436;BME280;9346;52.006;4.720;2023-04-20T05:44:52;101901.91;;;9.36;100.00
18436;BME280;9346;52.006;4.720;2023-04-20T05:47:19;101907.25;;;9.43;100.00
18436;BME280;9346;52.006;4.720;2023-04-20T05:49:45;101908.81;;;9.50;100.00
18436;BME280;9346;52.006;4.720;2023-04-20T05:52:12;101903.53;;;9.49;100.00
18436;BME280;9346;52.006;4.720;2023-04-20T05:54:40;101911.88;;;9.54;100.00
18436;BME280;9346;52.006;4.720;2023-04-20T05:57:08;101920.25;;;9.59;100.00
18436;BME280;9346;52.006;4.720;2023-04-20T05:59:36;101915.84;;;9.58;100.00
18436;BME280;9346;52.006;4.720;2023-04-20T06:02:03;101915.63;;;9.59;100.00
18436;BME280;9346;52.006;4.720;2023-04-20T06:04:30;101915.63;;;9.59;100.00
18436;BME280;9346;52.006;4.720;2023-04-20T06:06:57;101916.44;;;9.60;100.00
18436;BME280;9346;52.006;4.720;2023-04-20T06:09:24;101915.38;;;9.61;100.00
18436;BME280;9346;52.006;4.720;2023-04-20T06:11:51;101924.19;;;9.63;100.00
18436;BME280;9346;52.006;4.720;2023-04-20T06:14:20;101917.50;;;9.59;100.00
18436;BME280;9346;52.006;4.720;2023-04-20T06:16:47;101919.19;;;9.60;100.00
18436;BME280;9346;52.006;4.720;2023-04-20T06:19:14;101920.38;;;9.64;100.00
18436;BME280;9346;52.006;4.720;2023-04-20T06:21:41;101914.28;;;9.62;100.00
18436;BME280;9346;52.006;4.720;2023-04-20T06:24:08;101909.97;;;9.66;100.00
18436;BME280;9346;52.006;4.720;2023-04-20T06:26:35;101901.94;;;9.64;100.00
18436;BME280;9346;52.006;4.720;2023-04-20T06:29:02;101904.13;;;9.62;100.00
18436;BME280;9346;52.006;4.720;2023-04-20T06:31:30;101905.19;;;9.61;100.00
18436;BME280;9346;52.006;4.720;2023-04-20T06:33:57;101894.66;;;9.58;100.00
18436;BME280;9346;52.006;4.720;2023-04-20T06:36:24;101896.13;;;9.61;100.00
18436;BME280;9346;52.006;4.720;2023-04-20T06:38:51;101892.88;;;9.64;100.00
18436;BME280;9346;52.006;4.720;2023-04-20T06:41:19;101888.34;;;9.58;100.00
18436;BME280;9346;52.006;4.720;2023-04-20T06:43:46;101890.25;;;9.57;100.00
18436;BME280;9346;52.006;4.720;2023-04-20T06:46:13;101872.66;;;9.58;100.00
18436;BME280;9346;52.006;4.720;2023-04-20T06:48:41;101879.13;;;9.64;100.00
18436;BME280;9346;52.006;4.720;2023-04-20T06:51:08;101884.25;;;9.60;100.00
18436;BME280;9346;52.006;4.720;2023-04-20T06:53:35;101891.91;;;9.58;100.00
18436;BME280;9346;52.006;4.720;2023-04-20T06:56:02;101865.00;;;9.60;100.00
18436;BME280;9346;52.006;4.720;2023-04-20T06:58:28;101878.88;;;9.54;100.00
18436;BME280;9346;52.006;4.720;2023-04-20T07:00:55;101868.72;;;9.54;100.00
18436;BME280;9346;52.006;4.720;2023-04-20T07:03:22;101878.78;;;9.49;100.00
18436;BME280;9346;52.006;4.720;2023-04-20T07:05:51;101865.16;;;9.42;100.00
18436;BME280;9346;52.006;4.720;2023-04-20T07:08:19;101862.66;;;9.41;100.00
18436;BME280;9346;52.006;4.720;2023-04-20T07:10:46;101870.91;;;9.41;100.00
18436;BME280;9346;52.006;4.720;2023-04-20T07:13:13;101880.13;;;9.35;100.00
18436;BME280;9346;52.006;4.720;2023-04-20T07:15:40;101877.25;;;9.30;100.00
18436;BME280;9346;52.006;4.720;2023-04-20T07:18:07;101881.59;;;9.26;100.00
18436;BME280;9346;52.006;4.720;2023-04-20T07:20:34;101885.28;;;9.20;100.00
18436;BME280;9346;52.006;4.720;2023-04-20T07:23:03;101886.72;;;9.22;100.00
18436;BME280;9346;52.006;4.720;2023-04-20T07:25:30;101889.22;;;9.24;100.00
18436;BME280;9346;52.006;4.720;2023-04-20T07:27:57;101894.63;;;9.19;100.00
18436;BME280;9346;52.006;4.720;2023-04-20T07:30:24;101887.56;;;9.23;100.00
18436;BME280;9346;52.006;4.720;2023-04-20T07:32:51;101893.78;;;9.18;100.00
18436;BME280;9346;52.006;4.720;2023-04-20T07:35:19;101888.03;;;9.20;100.00
18436;BME280;9346;52.006;4.720;2023-04-20T07:37:46;101891.72;;;9.13;100.00
18436;BME280;9346;52.006;4.720;2023-04-20T07:40:14;101888.88;;;9.08;100.00
18436;BME280;9346;52.006;4.720;2023-04-20T07:42:41;101880.88;;;9.07;100.00
18436;BME280;9346;52.006;4.720;2023-04-20T07:45:09;101884.34;;;9.02;100.00
18436;BME280;9346;52.006;4.720;2023-04-20T07:47:36;101885.28;;;8.96;100.00
18436;BME280;9346;52.006;4.720;2023-04-20T07:50:05;101878.56;;;8.69;100.00
18436;BME280;9346;52.006;4.720;2023-04-20T07:52:32;101887.78;;;8.63;100.00
18436;BME280;9346;52.006;4.720;2023-04-20T07:54:59;101882.38;;;8.57;100.00
18436;BME280;9346;52.006;4.720;2023-04-20T07:57:28;101885.47;;;8.49;100.00
18436;BME280;9346;52.006;4.720;2023-04-20T07:59:55;101900.13;;;8.43;100.00
18436;BME280;9346;52.006;4.720;2023-04-20T08:02:22;101904.16;;;8.40;100.00
18436;BME280;9346;52.006;4.720;2023-04-20T08:04:49;101904.63;;;8.37;100.00
18436;BME280;9346;52.006;4.720;2023-04-20T08:07:16;101901.88;;;8.37;100.00
18436;BME280;9346;52.006;4.720;2023-04-20T08:09:43;101901.63;;;8.27;100.00
18436;BME280;9346;52.006;4.720;2023-04-20T08:12:10;101903.31;;;8.28;100.00
18436;BME280;9346;52.006;4.720;2023-04-20T08:14:39;101908.94;;;8.33;100.00
18436;BME280;9346;52.006;4.720;2023-04-20T08:17:06;101899.56;;;8.23;100.00
18436;BME280;9346;52.006;4.720;2023-04-20T08:19:32;101904.59;;;8.26;100.00
18436;BME280;9346;52.006;4.720;2023-04-20T08:22:01;101890.41;;;8.29;100.00
18436;BME280;9346;52.006;4.720;2023-04-20T08:24:28;101890.06;;;8.25;100.00
18436;BME280;9346;52.006;4.720;2023-04-20T08:26:55;101885.69;;;8.18;100.00
18436;BME280;9346;52.006;4.720;2023-04-20T08:29:23;101878.63;;;8.10;100.00
18436;BME280;9346;52.006;4.720;2023-04-20T08:31:52;101871.47;;;8.09;100.00
18436;BME280;9346;52.006;4.720;2023-04-20T08:34:22;101867.66;;;8.10;100.00
18436;BME280;9346;52.006;4.720;2023-04-20T08:36:49;101879.56;;;8.04;100.00
18436;BME280;9346;52.006;4.720;2023-04-20T08:39:19;101874.28;;;8.03;100.00
18436;BME280;9346;52.006;4.720;2023-04-20T08:41:48;101874.91;;;8.05;100.00
18436;BME280;9346;52.006;4.720;2023-04-20T08:44:18;101870.50;;;8.04;100.00
18436;BME280;9346;52.006;4.720;2023-04-20T08:46:46;101868.81;;;8.03;100.00
18436;BME280;9346;52.006;4.720;2023-04-20T08:49:16;101862.03;;;8.05;100.00
18436;BME280;9346;52.006;4.720;2023-04-20T08:51:44;101862.63;;;8.07;100.00
18436;BME280;9346;52.006;4.720;2023-04-20T08:54:13;101859.56;;;8.15;100.00
18436;BME280;9346;52.006;4.720;2023-04-20T08:56:43;101854.53;;;8.12;100.00
18436;BME280;9346;52.006;4.720;2023-04-20T08:59:11;101857.59;;;8.04;100.00
18436;BME280;9346;52.006;4.720;2023-04-20T09:01:39;101853.66;;;8.00;100.00
18436;BME280;9346;52.006;4.720;2023-04-20T09:04:20;101867.34;;;7.89;100.00
18436;BME280;9346;52.006;4.720;2023-04-20T09:06:48;101858.19;;;7.95;100.00
18436;BME280;9346;52.006;4.720;2023-04-20T09:09:16;101866.19;;;7.96;100.00
18436;BME280;9346;52.006;4.720;2023-04-20T09:11:43;101867.22;;;7.95;100.00
18436;BME280;9346;52.006;4.720;2023-04-20T09:14:12;101855.78;;;7.98;100.00
18436;BME280;9346;52.006;4.720;2023-04-20T09:16:48;101841.47;;;7.96;100.00
18436;BME280;9346;52.006;4.720;2023-04-20T09:19:22;101857.56;;;7.93;100.00
18436;BME280;9346;52.006;4.720;2023-04-20T09:21:50;101856.03;;;7.97;100.00
18436;BME280;9346;52.006;4.720;2023-04-20T09:27:14;101859.66;;;8.09;100.00
18436;BME280;9346;52.006;4.720;2023-04-20T09:29:41;101865.13;;;8.09;100.00
18436;BME280;9346;52.006;4.720;2023-04-20T09:32:20;101864.16;;;8.03;100.00
18436;BME280;9346;52.006;4.720;2023-04-20T09:34:50;101847.81;;;8.08;100.00
18436;BME280;9346;52.006;4.720;2023-04-20T09:37:18;101845.22;;;8.13;100.00
18436;BME280;9346;52.006;4.720;2023-04-20T09:39:47;101827.84;;;8.19;100.00
18436;BME280;9346;52.006;4.720;2023-04-20T09:42:15;101833.22;;;8.26;100.00
18436;BME280;9346;52.006;4.720;2023-04-20T09:44:42;101828.13;;;8.29;100.00
18436;BME280;9346;52.006;4.720;2023-04-20T09:47:15;101835.66;;;8.34;100.00
18436;BME280;9346;52.006;4.720;2023-04-20T09:49:43;101823.81;;;8.33;100.00
18436;BME280;9346;52.006;4.720;2023-04-20T09:52:15;101816.69;;;8.32;100.00
18436;BME280;9346;52.006;4.720;2023-04-20T09:54:43;101813.69;;;8.34;100.00
18436;BME280;9346;52.006;4.720;2023-04-20T09:57:11;101809.63;;;8.36;100.00
18436;BME280;9346;52.006;4.720;2023-04-20T09:59:40;101813.47;;;8.47;100.00
18436;BME280;9346;52.006;4.720;2023-04-20T10:02:10;101826.97;;;8.48;100.00
18436;BME280;9346;52.006;4.720;2023-04-20T10:04:51;101820.16;;;8.62;100.00
18436;BME280;9346;52.006;4.720;2023-04-20T10:07:24;101813.13;;;8.66;100.00
18436;BME280;9346;52.006;4.720;2023-04-20T10:10:05;101807.03;;;8.76;100.00
18436;BME280;9346;52.006;4.720;2023-04-20T10:12:33;101802.41;;;8.76;100.00
18436;BME280;9346;52.006;4.720;2023-04-20T10:15:01;101801.16;;;8.84;100.00
18436;BME280;9346;52.006;4.720;2023-04-20T10:17:29;101802.84;;;8.96;100.00
18436;BME280;9346;52.006;4.720;2023-04-20T10:19:56;101792.81;;;9.02;100.00
18436;BME280;9346;52.006;4.720;2023-04-20T10:22:29;101800.56;;;9.17;100.00
18436;BME280;9346;52.006;4.720;2023-04-20T10:24:57;101811.16;;;9.25;100.00
18436;BME280;9346;52.006;4.720;2023-04-20T10:27:25;101806.03;;;9.28;100.00
18436;BME280;9346;52.006;4.720;2023-04-20T10:29:52;101786.91;;;9.33;100.00
18436;BME280;9346;52.006;4.720;2023-04-20T10:32:23;101791.06;;;9.36;100.00
18436;BME280;9346;52.006;4.720;2023-04-20T10:35:00;101786.41;;;9.36;100.00
18436;BME280;9346;52.006;4.720;2023-04-20T10:37:29;101801.09;;;9.42;100.00
18436;BME280;9346;52.006;4.720;2023-04-20T10:39:57;101780.31;;;9.34;100.00
18436;BME280;9346;52.006;4.720;2023-04-20T10:42:24;101778.84;;;9.43;100.00
18436;BME280;9346;52.006;4.720;2023-04-20T10:44:53;101796.56;;;9.36;100.00
18436;BME280;9346;52.006;4.720;2023-04-20T10:47:26;101778.88;;;9.32;100.00
18436;BME280;9346;52.006;4.720;2023-04-20T10:49:54;101771.56;;;9.37;100.00
18436;BME280;9346;52.006;4.720;2023-04-20T10:52:32;101779.81;;;9.37;100.00
18436;BME280;9346;52.006;4.720;2023-04-20T10:55:17;101781.25;;;9.40;100.00
18436;BME280;9346;52.006;4.720;2023-04-20T10:57:44;101781.59;;;9.43;100.00
18436;BME280;9346;52.006;4.720;2023-04-20T11:00:14;101773.97;;;9.34;100.00
18436;BME280;9346;52.006;4.720;2023-04-20T11:02:45;101769.34;;;9.23;100.00
18436;BME280;9346;52.006;4.720;2023-04-20T11:05:13;101763.16;;;9.16;100.00
18436;BME280;9346;52.006;4.720;2023-04-20T11:07:50;101763.25;;;9.21;100.00
18436;BME280;9346;52.006;4.720;2023-04-20T11:10:17;101775.16;;;9.26;100.00
18436;BME280;9346;52.006;4.720;2023-04-20T11:12:44;101777.91;;;9.38;100.00
18436;BME280;9346;52.006;4.720;2023-04-20T11:15:11;101764.94;;;9.50;100.00
18436;BME280;9346;52.006;4.720;2023-04-20T11:17:38;101755.59;;;9.62;100.00
18436;BME280;9346;52.006;4.720;2023-04-20T11:20:07;101755.09;;;9.65;100.00
18436;BME280;9346;52.006;4.720;2023-04-20T11:22:35;101755.41;;;9.69;100.00
18436;BME280;9346;52.006;4.720;2023-04-20T11:25:05;101755.47;;;9.57;100.00
18436;BME280;9346;52.006;4.720;2023-04-20T11:27:32;101739.41;;;9.66;100.00
18436;BME280;9346;52.006;4.720;2023-04-20T11:30:00;101737.69;;;9.76;100.00
18436;BME280;9346;52.006;4.720;2023-04-20T11:32:30;101736.44;;;9.84;100.00
18436;BME280;9346;52.006;4.720;2023-04-20T11:34:58;101731.38;;;9.92;100.00
18436;BME280;9346;52.006;4.720;2023-04-20T11:37:26;101720.88;;;10.06;100.00
18436;BME280;9346;52.006;4.720;2023-04-20T11:40:00;101725.50;;;10.17;100.00
18436;BME280;9346;52.006;4.720;2023-04-20T11:42:30;101723.00;;;10.32;100.00
18436;BME280;9346;52.006;4.720;2023-04-20T11:44:57;101710.03;;;10.49;100.00
18436;BME280;9346;52.006;4.720;2023-04-20T11:47:25;101709.53;;;10.52;100.00
18436;BME280;9346;52.006;4.720;2023-04-20T11:49:52;101712.19;;;10.63;100.00
18436;BME280;9346;52.006;4.720;2023-04-20T11:52:19;101699.03;;;10.70;100.00
18436;BME280;9346;52.006;4.720;2023-04-20T11:54:46;101709.66;;;10.78;100.00
18436;BME280;9346;52.006;4.720;2023-04-20T11:57:13;101699.53;;;10.84;100.00
18436;BME280;9346;52.006;4.720;2023-04-20T11:59:42;101710.28;;;10.85;100.00
18436;BME280;9346;52.006;4.720;2023-04-20T12:02:21;101698.56;;;10.95;100.00
18436;BME280;9346;52.006;4.720;2023-04-20T12:04:48;101705.81;;;11.01;100.00
18436;BME280;9346;52.006;4.720;2023-04-20T12:07:15;101704.69;;;11.02;100.00
18436;BME280;9346;52.006;4.720;2023-04-20T12:09:43;101706.94;;;11.05;100.00
18436;BME280;9346;52.006;4.720;2023-04-20T12:12:09;101703.69;;;11.08;100.00
18436;BME280;9346;52.006;4.720;2023-04-20T12:14:36;101703.00;;;11.17;100.00
18436;BME280;9346;52.006;4.720;2023-04-20T12:17:05;101696.72;;;11.22;100.00
18436;BME280;9346;52.006;4.720;2023-04-20T12:19:32;101699.22;;;11.23;100.00
18436;BME280;9346;52.006;4.720;2023-04-20T12:22:01;101706.41;;;11.29;100.00
18436;BME280;9346;52.006;4.720;2023-04-20T12:24:28;101695.72;;;11.33;100.00
18436;BME280;9346;52.006;4.720;2023-04-20T12:26:55;101686.94;;;11.36;100.00
18436;BME280;9346;52.006;4.720;2023-04-20T12:29:23;101687.50;;;11.38;100.00
18436;BME280;9346;52.006;4.720;2023-04-20T12:31:50;101693.03;;;11.38;100.00
18436;BME280;9346;52.006;4.720;2023-04-20T12:34:18;101694.34;;;11.35;100.00
18436;BME280;9346;52.006;4.720;2023-04-20T12:36:45;101689.69;;;11.36;100.00
18436;BME280;9346;52.006;4.720;2023-04-20T12:39:12;101684.44;;;11.34;100.00
18436;BME280;9346;52.006;4.720;2023-04-20T12:41:40;101673.13;;;11.36;100.00
18436;BME280;9346;52.006;4.720;2023-04-20T12:44:07;101668.72;;;11.35;100.00
18436;BME280;9346;52.006;4.720;2023-04-20T12:46:34;101676.41;;;11.33;100.00
18436;BME280;9346;52.006;4.720;2023-04-20T12:49:01;101676.91;;;11.30;100.00
18436;BME280;9346;52.006;4.720;2023-04-20T12:51:31;101681.03;;;11.27;100.00
18436;BME280;9346;52.006;4.720;2023-04-20T12:53:58;101673.63;;;11.28;100.00
18436;BME280;9346;52.006;4.720;2023-04-20T12:56:25;101667.00;;;11.29;100.00
18436;BME280;9346;52.006;4.720;2023-04-20T12:58:55;101679.91;;;11.23;100.00
18436;BME280;9346;52.006;4.720;2023-04-20T13:01:22;101675.41;;;11.17;100.00
18436;BME280;9346;52.006;4.720;2023-04-20T13:03:49;101678.94;;;11.13;100.00
18436;BME280;9346;52.006;4.720;2023-04-20T13:06:16;101680.03;;;11.12;100.00